createdAt,value
2022-08-04T00:01:14.629Z,97524.91
2022-08-04T00:03:59.463Z,97523.94
2022-08-04T00:06:41.775Z,97528.75
2022-08-04T00:09:18.803Z,97526.69
2022-08-04T00:11:50.307Z,97523.63
2022-08-04T00:14:21.541Z,97519.72
2022-08-04T00:16:52.449Z,97529.47
2022-08-04T00:19:31.770Z,97528.31
2022-08-04T00:22:06.312Z,97529.81
2022-08-04T00:24:37.189Z,97522.41
2022-08-04T00:27:06.798Z,97518.03
2022-08-04T00:29:35.790Z,97513.06
2022-08-04T00:32:05.154Z,97517.91
2022-08-04T00:34:35.551Z,97522.69
2022-08-04T00:37:05.419Z,97524.00
2022-08-04T00:39:35.698Z,97531.50
2022-08-04T00:42:58.500Z,97535.09
2022-08-04T00:46:16.366Z,97526.63
2022-08-04T00:49:36.790Z,97526.72
2022-08-04T00:52:31.943Z,97527.75
2022-08-04T00:55:21.059Z,97529.25
2022-08-04T00:58:07.591Z,97533.63
2022-08-04T01:00:49.224Z,97533.25
2022-08-04T01:03:25.770Z,97545.09
2022-08-04T01:06:07.940Z,97541.78
2022-08-04T01:09:02.664Z,97543.06
2022-08-04T01:11:56.846Z,97538.13
2022-08-04T01:14:45.142Z,97533.13
2022-08-04T01:17:22.413Z,97534.38
2022-08-04T01:20:06.069Z,97526.75
2022-08-04T01:23:20.371Z,97527.78
2022-08-04T01:26:42.692Z,97523.91
2022-08-04T01:29:18.637Z,97520.81
2022-08-04T01:32:02.218Z,97530.81
2022-08-04T01:34:36.172Z,97531.25
2022-08-04T01:37:13.630Z,97527.09
2022-08-04T01:39:51.716Z,97524.84
2022-08-04T01:42:31.582Z,97524.28
2022-08-04T01:45:04.957Z,97526.38
2022-08-04T01:47:37.369Z,97525.16
2022-08-04T01:50:10.545Z,97521.63
2022-08-04T01:52:41.414Z,97529.13
2022-08-04T01:55:13.483Z,97524.78
2022-08-04T01:57:45.305Z,97517.13
2022-08-04T02:00:19.810Z,97515.69
2022-08-04T02:02:49.086Z,97522.34
2022-08-04T02:05:19.608Z,97523.63
2022-08-04T02:08:18.362Z,97519.34
2022-08-04T02:10:58.884Z,97517.91
2022-08-04T02:13:34.625Z,97520.84
2022-08-04T02:16:11.106Z,97522.94
2022-08-04T02:18:51.855Z,97509.66
2022-08-04T02:21:22.053Z,97513.63
2022-08-04T02:23:59.315Z,97513.00
2022-08-04T02:26:30.993Z,97509.69
2022-08-04T02:29:11.042Z,97510.13
2022-08-04T02:31:48.255Z,97508.69
2022-08-04T02:34:26.745Z,97512.66
2022-08-04T02:36:57.407Z,97505.63
2022-08-04T02:39:28.009Z,97510.63
2022-08-04T02:41:57.793Z,97511.06
2022-08-04T02:44:29.864Z,97511.50
2022-08-04T02:47:02.522Z,97511.94
2022-08-04T02:49:33.710Z,97506.75
2022-08-04T02:52:02.788Z,97507.00
2022-08-04T02:54:42.626Z,97509.50
2022-08-04T02:57:13.715Z,97513.25
2022-08-04T03:00:01.234Z,97514.53
2022-08-04T03:02:40.906Z,97504.41
2022-08-04T03:05:18.718Z,97503.19
2022-08-04T03:08:28.721Z,97500.53
2022-08-04T03:11:45.031Z,97499.31
2022-08-04T03:15:02.226Z,97490.66
2022-08-04T03:18:03.110Z,97497.09
2022-08-04T03:21:05.431Z,97500.84
2022-08-04T03:24:20.661Z,97502.09
2022-08-04T03:27:13.698Z,97498.16
2022-08-04T03:30:09.891Z,97496.72
2022-08-04T03:33:29.226Z,97500.66
2022-08-04T03:36:39.984Z,97501.09
2022-08-04T03:39:35.739Z,97499.03
2022-08-04T03:42:59.463Z,97510.50
2022-08-04T03:46:14.611Z,97516.31
2022-08-04T03:49:42.994Z,97513.22
2022-08-04T03:52:53.145Z,97512.59
2022-08-04T03:55:46.275Z,97509.53
2022-08-04T03:58:48.894Z,97505.38
2022-08-04T04:02:01.973Z,97501.47
2022-08-04T04:05:08.657Z,97501.06
2022-08-04T04:08:16.444Z,97494.66
2022-08-04T04:11:23.200Z,97497.56
2022-08-04T04:14:16.122Z,97486.38
2022-08-04T04:17:04.594Z,97491.78
2022-08-04T04:20:00.911Z,97496.34
2022-08-04T04:22:55.802Z,97492.00
2022-08-04T04:25:40.984Z,97499.25
2022-08-04T04:28:45.273Z,97497.59
2022-08-04T04:31:54.183Z,97496.78
2022-08-04T04:34:46.039Z,97504.66
2022-08-04T04:37:24.832Z,97496.34
2022-08-04T04:40:07.232Z,97498.00
2022-08-04T04:43:12.834Z,97509.63
2022-08-04T04:45:52.140Z,97508.56
2022-08-04T04:48:35.983Z,97511.25
2022-08-04T04:51:21.531Z,97517.06
2022-08-04T04:54:00.783Z,97516.84
2022-08-04T04:56:37.695Z,97516.41
2022-08-04T04:59:11.958Z,97520.53
2022-08-04T05:02:35.961Z,97516.56
2022-08-04T05:05:38.830Z,97516.16
2022-08-04T05:09:04.972Z,97525.69
2022-08-04T05:12:18.517Z,97520.88
2022-08-04T05:15:07.422Z,97527.31
2022-08-04T05:17:40.004Z,97522.09
2022-08-04T05:20:13.902Z,97526.63
2022-08-04T05:22:49.473Z,97533.84
2022-08-04T05:25:26.756Z,97523.25
2022-08-04T05:28:06.986Z,97528.81
2022-08-04T05:30:48.339Z,97531.72
2022-08-04T05:33:28.541Z,97529.19
2022-08-04T05:36:23.548Z,97528.34
2022-08-04T05:38:55.326Z,97532.03
2022-08-04T05:41:44.789Z,97532.56
2022-08-04T05:44:14.777Z,97540.41
2022-08-04T05:46:44.839Z,97538.47
2022-08-04T05:49:24.205Z,97535.88
2022-08-04T05:51:55.326Z,97535.63
2022-08-04T05:54:24.329Z,97533.28
2022-08-04T05:56:56.104Z,97532.16
2022-08-04T05:59:26.600Z,97537.66
2022-08-04T06:01:58.771Z,97535.53
2022-08-04T06:04:32.855Z,97537.25
2022-08-04T06:07:01.376Z,97531.91
2022-08-04T06:09:29.968Z,97530.16
2022-08-04T06:12:04.826Z,97533.53
2022-08-04T06:14:39.755Z,97530.69
2022-08-04T06:18:33.398Z,97536.72
2022-08-04T06:20:18.045Z,97535.03
2022-08-04T06:22:55.401Z,97530.31
2022-08-04T06:25:26.931Z,97531.28
2022-08-04T06:27:57.695Z,97530.88
2022-08-04T06:30:28.092Z,97527.50
2022-08-04T06:33:04.389Z,97519.78
2022-08-04T06:35:34.715Z,97518.22
2022-08-04T06:38:04.012Z,97516.13
2022-08-04T06:40:34.820Z,97517.53
2022-08-04T06:43:08.085Z,97519.78
2022-08-04T06:45:41.305Z,97522.81
2022-08-04T06:48:14.373Z,97519.34
2022-08-04T06:51:25.591Z,97515.63
2022-08-04T06:53:37.086Z,97517.16
2022-08-04T06:56:06.262Z,97516.34
2022-08-04T06:58:36.720Z,97518.28
2022-08-04T07:01:05.589Z,97515.81
2022-08-04T07:03:34.236Z,97525.06
2022-08-04T07:06:06.158Z,97517.41
2022-08-04T07:08:43.467Z,97511.91
2022-08-04T07:11:13.380Z,97515.91
2022-08-04T07:13:45.520Z,97511.25
2022-08-04T07:16:16.085Z,97514.44
2022-08-04T07:18:44.662Z,97509.44
2022-08-04T07:21:21.292Z,97521.59
2022-08-04T07:23:49.962Z,97515.56
2022-08-04T07:26:19.339Z,97520.44
2022-08-04T07:28:49.146Z,97518.69
2022-08-04T07:31:35.215Z,97518.38
2022-08-04T07:34:17.395Z,97518.53
2022-08-04T07:36:55.313Z,97521.72
2022-08-04T07:39:28.161Z,97517.50
2022-08-04T07:42:01.502Z,97514.34
2022-08-04T07:44:33.001Z,97518.56
2022-08-04T07:47:02.875Z,97516.19
2022-08-04T07:49:55.566Z,97517.41
2022-08-04T07:52:20.288Z,97517.75
2022-08-04T07:54:50.496Z,97519.72
2022-08-04T07:57:41.555Z,97512.13
2022-08-04T08:00:14.573Z,97513.00
2022-08-04T08:02:44.003Z,97514.19
2022-08-04T08:05:16.830Z,97508.22
2022-08-04T08:07:50.459Z,97507.16
2022-08-04T08:10:23.012Z,97508.28
2022-08-04T08:12:53.493Z,97508.88
2022-08-04T08:15:23.769Z,97508.59
2022-08-04T08:17:58.165Z,97513.81
2022-08-04T08:20:29.709Z,97513.19
2022-08-04T08:22:59.142Z,97510.16
2022-08-04T08:25:27.694Z,97513.72
2022-08-04T08:27:56.856Z,97509.81
2022-08-04T08:30:32.146Z,97504.00
2022-08-04T08:33:06.110Z,97499.88
2022-08-04T08:35:54.203Z,97506.34
2022-08-04T08:38:37.782Z,97507.91
2022-08-04T08:41:40.306Z,97505.09
2022-08-04T08:44:57.424Z,97504.41
2022-08-04T08:48:00.076Z,97507.28
2022-08-04T08:51:04.654Z,97507.66
2022-08-04T08:53:52.786Z,97508.03
2022-08-04T08:56:35.538Z,97509.25
2022-08-04T08:59:27.313Z,97506.84
2022-08-04T09:02:14.698Z,97515.09
2022-08-04T09:05:24.707Z,97505.81
2022-08-04T09:08:12.769Z,97510.28
2022-08-04T09:10:46.778Z,97508.16
2022-08-04T09:13:21.496Z,97509.38
2022-08-04T09:16:00.521Z,97508.63
2022-08-04T09:18:37.561Z,97506.97
2022-08-04T09:21:17.038Z,97512.84
2022-08-04T09:24:01.831Z,97506.88
2022-08-04T09:26:38.668Z,97498.75
2022-08-04T09:29:17.077Z,97501.34
2022-08-04T09:32:06.286Z,97503.38
2022-08-04T09:34:46.530Z,97499.22
2022-08-04T09:37:46.223Z,97493.31
2022-08-04T09:40:31.903Z,97495.69
2022-08-04T09:43:26.407Z,97497.94
2022-08-04T09:46:05.095Z,97487.31
2022-08-04T09:48:41.978Z,97492.84
2022-08-04T09:51:25.620Z,97490.53
2022-08-04T09:54:30.515Z,97499.00
2022-08-04T09:57:11.230Z,97497.44
2022-08-04T09:59:47.415Z,97495.59
2022-08-04T10:02:20.486Z,97491.53
2022-08-04T10:04:52.087Z,97480.06
2022-08-04T10:08:16.538Z,97487.31
2022-08-04T10:10:58.260Z,97480.25
2022-08-04T10:13:40.828Z,97480.22
2022-08-04T10:16:34.269Z,97476.91
2022-08-04T10:19:19.911Z,97471.97
2022-08-04T10:22:28.103Z,97467.03
2022-08-04T10:26:02.936Z,97462.56
2022-08-04T10:28:10.184Z,97469.78
2022-08-04T10:30:46.790Z,97465.66
2022-08-04T10:33:25.429Z,97458.22
2022-08-04T10:36:01.959Z,97460.72
2022-08-04T10:38:37.371Z,97459.47
2022-08-04T10:41:14.488Z,97464.91
2022-08-04T10:43:50.729Z,97451.94
2022-08-04T10:46:22.787Z,97456.03
2022-08-04T10:48:59.068Z,97455.25
2022-08-04T10:51:58.875Z,97451.72
2022-08-04T10:54:32.738Z,97451.22
2022-08-04T10:57:08.736Z,97451.22
2022-08-04T10:59:47.126Z,97447.66
2022-08-04T11:02:31.531Z,97455.47
2022-08-04T11:05:11.535Z,97450.75
2022-08-04T11:07:42.571Z,97444.25
2022-08-04T11:10:11.136Z,97433.03
2022-08-04T11:12:41.944Z,97440.34
2022-08-04T11:15:20.235Z,97443.94
2022-08-04T11:17:55.402Z,97437.59
2022-08-04T11:20:35.144Z,97440.91
2022-08-04T11:23:08.337Z,97440.56
2022-08-04T11:25:51.963Z,97432.09
2022-08-04T11:28:39.499Z,97431.56
2022-08-04T11:31:14.672Z,97428.84
2022-08-04T11:33:51.466Z,97430.13
2022-08-04T11:36:30.512Z,97438.41
2022-08-04T11:39:08.681Z,97433.66
2022-08-04T11:41:55.504Z,97429.75
2022-08-04T11:44:33.699Z,97426.16
2022-08-04T11:47:10.773Z,97425.31
2022-08-04T11:49:56.647Z,97424.16
2022-08-04T11:52:29.484Z,97428.03
2022-08-04T11:54:59.142Z,97428.16
2022-08-04T11:57:35.877Z,97427.63
2022-08-04T12:00:11.230Z,97426.97
2022-08-04T12:03:07.429Z,97427.94
2022-08-04T12:05:43.179Z,97425.47
2022-08-04T12:08:34.783Z,97427.72
2022-08-04T12:11:16.589Z,97422.59
2022-08-04T12:13:58.749Z,97424.53
2022-08-04T12:16:40.053Z,97429.06
2022-08-04T12:19:20.944Z,97423.66
2022-08-04T12:21:56.764Z,97421.19
2022-08-04T12:24:30.824Z,97415.09
2022-08-04T12:27:06.290Z,97408.53
2022-08-04T12:29:38.086Z,97415.09
2022-08-04T12:32:20.073Z,97395.53
2022-08-04T12:34:59.981Z,97403.38
2022-08-04T12:37:48.321Z,97399.78
2022-08-04T12:40:30.091Z,97398.78
2022-08-04T12:43:10.432Z,97394.16
2022-08-04T12:45:48.605Z,97393.97
2022-08-04T12:48:21.338Z,97389.50
2022-08-04T12:50:53.844Z,97392.44
2022-08-04T12:53:31.300Z,97391.88
2022-08-04T12:56:02.596Z,97386.97
2022-08-04T12:58:42.129Z,97375.19
2022-08-04T13:02:07.883Z,97379.72
2022-08-04T13:04:13.209Z,97377.88
2022-08-04T13:06:44.142Z,97375.19
2022-08-04T13:09:17.517Z,97375.00
2022-08-04T13:11:54.258Z,97373.16
2022-08-04T13:14:27.830Z,97367.38
2022-08-04T13:17:01.198Z,97368.66
2022-08-04T13:19:30.813Z,97368.84
2022-08-04T13:22:03.050Z,97362.94
2022-08-04T13:24:41.667Z,97366.53
2022-08-04T13:27:25.569Z,97370.78
2022-08-04T13:30:03.470Z,97366.72
2022-08-04T13:32:33.750Z,97363.09
2022-08-04T13:35:04.681Z,97365.78
2022-08-04T13:37:38.986Z,97363.34
2022-08-04T13:40:11.093Z,97362.06
2022-08-04T13:42:41.558Z,97349.69
2022-08-04T13:45:11.244Z,97350.38
2022-08-04T13:47:41.591Z,97344.66
2022-08-04T13:50:20.389Z,97340.63
2022-08-04T13:52:54.395Z,97342.47
2022-08-04T13:55:26.538Z,97344.78
2022-08-04T13:58:01.055Z,97344.31
2022-08-04T14:00:44.935Z,97338.97
2022-08-04T14:03:24.843Z,97333.91
2022-08-04T14:06:17.237Z,97332.25
2022-08-04T14:08:51.599Z,97332.59
2022-08-04T14:12:09.343Z,97323.59
2022-08-04T14:14:19.106Z,97329.16
2022-08-04T14:17:05.448Z,97321.50
2022-08-04T14:19:51.473Z,97320.72
2022-08-04T14:22:41.114Z,97322.00
2022-08-04T14:25:15.579Z,97312.84
2022-08-04T14:27:47.701Z,97309.72
2022-08-04T14:30:27.504Z,97314.16
2022-08-04T14:32:58.839Z,97316.91
2022-08-04T14:35:50.331Z,97312.16
2022-08-04T14:38:16.034Z,97311.03
2022-08-04T14:40:45.931Z,97312.63
2022-08-04T14:43:19.450Z,97311.03
2022-08-04T14:45:54.113Z,97310.34
2022-08-04T14:48:24.033Z,97307.44
2022-08-04T14:50:53.084Z,97309.03
2022-08-04T14:53:26.361Z,97303.84
2022-08-04T14:55:58.711Z,97299.31
2022-08-04T14:58:33.696Z,97305.19
2022-08-04T15:01:10.192Z,97309.97
2022-08-04T15:03:50.402Z,97304.25
2022-08-04T15:06:23.942Z,97304.09
2022-08-04T15:08:54.707Z,97300.41
2022-08-04T15:11:25.124Z,97297.16
2022-08-04T15:13:53.948Z,97298.84
2022-08-04T15:16:23.368Z,97302.19
2022-08-04T15:18:52.790Z,97302.06
2022-08-04T15:21:24.270Z,97300.31
2022-08-04T15:23:53.121Z,97294.31
2022-08-04T15:26:30.247Z,97297.28
2022-08-04T15:29:16.819Z,97295.50
2022-08-04T15:32:07.233Z,97296.31
2022-08-04T15:34:47.595Z,97285.28
2022-08-04T15:37:20.531Z,97291.84
2022-08-04T15:40:11.089Z,97291.72
2022-08-04T15:42:49.865Z,97280.81
2022-08-04T15:46:28.838Z,97287.03
2022-08-04T15:48:34.873Z,97291.66
2022-08-04T15:51:15.048Z,97281.69
2022-08-04T15:54:27.869Z,97276.50
2022-08-04T15:57:02.376Z,97276.50
2022-08-04T16:00:06.342Z,97278.31
2022-08-04T16:02:43.860Z,97274.44
2022-08-04T16:05:46.306Z,97271.81
2022-08-04T16:08:18.856Z,97270.53
2022-08-04T16:10:50.854Z,97270.19
2022-08-04T16:13:22.364Z,97262.69
2022-08-04T16:15:54.855Z,97262.91
2022-08-04T16:18:43.791Z,97267.13
2022-08-04T16:21:27.735Z,97265.38
2022-08-04T16:24:15.552Z,97262.00
2022-08-04T16:26:55.031Z,97257.13
2022-08-04T16:29:37.977Z,97264.50
2022-08-04T16:32:24.384Z,97256.38
2022-08-04T16:35:00.302Z,97260.63
2022-08-04T16:37:34.910Z,97254.63
2022-08-04T16:40:33.777Z,97259.50
2022-08-04T16:43:13.406Z,97257.75
2022-08-04T16:45:55.334Z,97258.41
2022-08-04T16:48:28.197Z,97258.25
2022-08-04T16:51:05.314Z,97251.28
2022-08-04T16:54:03.709Z,97264.84
2022-08-04T16:56:34.789Z,97259.03
2022-08-04T16:59:14.831Z,97254.34
2022-08-04T17:01:48.582Z,97257.25
2022-08-04T17:04:19.007Z,97252.75
2022-08-04T17:06:47.697Z,97253.09
2022-08-04T17:09:18.823Z,97247.25
2022-08-04T17:11:48.955Z,97252.81
2022-08-04T17:14:23.905Z,97243.22
2022-08-04T17:16:54.514Z,97244.84
2022-08-04T17:19:26.490Z,97251.56
2022-08-04T17:22:04.914Z,97243.59
2022-08-04T17:24:36.049Z,97242.00
2022-08-04T17:28:08.510Z,97246.38
2022-08-04T17:29:54.682Z,97247.03
2022-08-04T17:32:24.032Z,97246.88
2022-08-04T17:34:57.501Z,97245.56
2022-08-04T17:37:40.934Z,97241.13
2022-08-04T17:40:25.464Z,97230.56
2022-08-04T17:44:01.410Z,97240.59
2022-08-04T17:46:28.460Z,97235.31
2022-08-04T17:49:09.009Z,97239.22
2022-08-04T17:52:04.616Z,97234.78
2022-08-04T17:54:39.403Z,97239.47
2022-08-04T17:57:21.065Z,97234.84
2022-08-04T17:59:57.852Z,97241.94
2022-08-04T18:02:32.850Z,97234.28
2022-08-04T18:05:07.925Z,97237.31
2022-08-04T18:08:34.535Z,97243.84
2022-08-04T18:10:55.507Z,97240.66
2022-08-04T18:13:27.129Z,97243.69
2022-08-04T18:16:12.621Z,97249.75
2022-08-04T18:19:09.738Z,97232.75
2022-08-04T18:21:46.759Z,97239.81
2022-08-04T18:24:35.874Z,97234.38
2022-08-04T18:27:18.896Z,97238.47
2022-08-04T18:29:50.265Z,97242.22
2022-08-04T18:32:36.327Z,97240.31
2022-08-04T18:35:07.094Z,97244.09
2022-08-04T18:38:05.297Z,97245.44
2022-08-04T18:40:35.559Z,97246.25
2022-08-04T18:43:14.225Z,97246.72
2022-08-04T18:45:50.904Z,97258.75
2022-08-04T18:48:19.956Z,97259.25
2022-08-04T18:51:08.768Z,97253.59
2022-08-04T18:53:38.259Z,97263.47
2022-08-04T18:56:19.948Z,97264.75
2022-08-04T18:58:59.827Z,97262.19
2022-08-04T19:01:30.007Z,97260.41
2022-08-04T19:04:34.174Z,97261.16
2022-08-04T19:07:28.831Z,97266.50
2022-08-04T19:09:57.632Z,97257.09
2022-08-04T19:12:29.068Z,97264.34
2022-08-04T19:15:08.752Z,97268.84
2022-08-04T19:17:53.321Z,97265.44
2022-08-04T19:20:27.152Z,97282.03
2022-08-04T19:24:10.751Z,97282.69
2022-08-04T19:26:02.322Z,97282.03
2022-08-04T19:28:36.959Z,97280.47
2022-08-04T19:31:07.081Z,97288.53
2022-08-04T19:33:58.328Z,97281.53
2022-08-04T19:39:16.022Z,97288.84
2022-08-04T19:42:04.445Z,97290.28
2022-08-04T19:44:34.870Z,97290.38
2022-08-04T19:50:04.461Z,97300.72
2022-08-04T19:52:35.961Z,97304.34
2022-08-04T19:55:09.694Z,97298.66
2022-08-04T19:57:46.066Z,97301.16
2022-08-04T20:00:17.850Z,97303.69
2022-08-04T20:03:02.687Z,97309.53
2022-08-04T20:05:52.664Z,97305.19
2022-08-04T20:08:20.474Z,97302.53
2022-08-04T20:10:51.749Z,97307.44
2022-08-04T20:13:20.970Z,97302.56
2022-08-04T20:15:57.627Z,97296.06
2022-08-04T20:18:35.959Z,97303.22
2022-08-04T20:21:19.580Z,97309.81
2022-08-04T20:23:53.309Z,97301.09
2022-08-04T20:26:21.912Z,97306.31
2022-08-04T20:28:51.810Z,97299.50
2022-08-04T20:31:22.272Z,97304.44
2022-08-04T20:33:53.776Z,97296.81
2022-08-04T20:36:23.777Z,97300.94
2022-08-04T20:38:54.481Z,97311.34
2022-08-04T20:41:23.266Z,97310.50
2022-08-04T20:43:52.044Z,97307.22
2022-08-04T20:46:29.342Z,97305.88
2022-08-04T20:48:58.730Z,97305.63
2022-08-04T20:51:33.209Z,97300.41
2022-08-04T20:54:03.505Z,97308.91
2022-08-04T20:56:50.671Z,97302.09
2022-08-04T20:59:20.124Z,97303.44
2022-08-04T21:01:53.954Z,97305.34
2022-08-04T21:04:45.607Z,97299.56
2022-08-04T21:07:27.283Z,97303.38
2022-08-04T21:09:57.455Z,97302.03
2022-08-04T21:12:29.157Z,97300.63
2022-08-04T21:15:01.149Z,97300.09
2022-08-04T21:17:58.650Z,97301.16
2022-08-04T21:20:27.709Z,97296.50
2022-08-04T21:22:59.676Z,97296.75
2022-08-04T21:25:30.342Z,97298.09
2022-08-04T21:28:04.421Z,97300.25
2022-08-04T21:30:52.694Z,97296.94
2022-08-04T21:33:23.647Z,97299.38
2022-08-04T21:35:54.397Z,97298.53
2022-08-04T21:38:25.318Z,97297.69
2022-08-04T21:41:01.457Z,97288.94
2022-08-04T21:43:42.481Z,97299.81
2022-08-04T21:46:12.203Z,97303.59
2022-08-04T21:48:44.908Z,97305.44
2022-08-04T21:51:55.861Z,97306.50
2022-08-04T21:54:14.958Z,97310.53
2022-08-04T21:56:51.248Z,97308.59
2022-08-04T21:59:23.799Z,97317.28
2022-08-04T22:02:01.626Z,97309.91
2022-08-04T22:04:31.815Z,97315.56
2022-08-04T22:07:02.699Z,97306.53
2022-08-04T22:09:31.627Z,97304.59
2022-08-04T22:12:12.087Z,97310.81
2022-08-04T22:14:40.967Z,97310.75
2022-08-04T22:17:13.800Z,97312.94
2022-08-04T22:19:55.974Z,97310.44
2022-08-04T22:22:29.090Z,97312.31
2022-08-04T22:25:01.767Z,97309.53
2022-08-04T22:27:55.372Z,97301.34
2022-08-04T22:30:24.752Z,97307.81
2022-08-04T22:33:02.313Z,97309.66
2022-08-04T22:35:43.765Z,97313.09
2022-08-04T22:38:24.340Z,97321.25
2022-08-04T22:41:08.515Z,97310.81
2022-08-04T22:43:38.202Z,97307.25
2022-08-04T22:46:09.283Z,97309.09
2022-08-04T22:48:43.248Z,97315.03
2022-08-04T22:51:13.800Z,97310.63
2022-08-04T22:53:48.990Z,97309.47
2022-08-04T22:56:38.538Z,97302.34
2022-08-04T22:59:06.674Z,97305.56
2022-08-04T23:01:57.905Z,97297.38
2022-08-04T23:04:26.912Z,97308.19
2022-08-04T23:06:56.935Z,97306.56
2022-08-04T23:09:49.090Z,97313.50
2022-08-04T23:12:24.597Z,97307.47
2022-08-04T23:14:55.424Z,97307.44
2022-08-04T23:17:24.370Z,97300.59
2022-08-04T23:19:55.502Z,97305.72
2022-08-04T23:22:40.941Z,97304.56
2022-08-04T23:25:15.780Z,97303.44
2022-08-04T23:27:50.896Z,97302.31
2022-08-04T23:30:24.613Z,97300.09
2022-08-04T23:32:57.918Z,97290.00
2022-08-04T23:35:26.592Z,97288.81
2022-08-04T23:37:59.902Z,97297.47
2022-08-04T23:40:50.446Z,97292.00
2022-08-04T23:43:19.402Z,97296.28
2022-08-04T23:46:04.105Z,97296.50
2022-08-04T23:48:38.863Z,97287.47
2022-08-04T23:51:14.967Z,97284.94
2022-08-04T23:54:01.564Z,97285.69
2022-08-04T23:56:34.265Z,97288.06
2022-08-04T23:59:04.623Z,97285.03
